Historyczne dane pomiarowe

Dodano dane terminowe – wersja testowa.

Dane z okresu 1951-2019

Wersja bazy: 1.34 [2019-03-16, lista zmian], aktualizacja planowana na 2019-04-15

Dane meteo z obszaru Polski uzyskane na podstawie danych udostępnionych przez Instytut Meteorologii i Gospodarki Wodnej – Państwowy Instytut Badawczy.

 

Wybierz Datę:    

       

TemperaturaWilgotnośćWiatrCiśnienieOpadyŚniegCzas trwania zjawisk
 Stacja t tx tn tng RH VA  wxwx mslp ppp RRR   cm mm wxwxwxwxwxwxwx
1994-08-14 12.0 15.2 7.6 5.3 69.0- 6.0 5.0---- 0.0------------
1994-08-13 14.8 17.8 12.9 11.8 81.3- 6.7 5.3---- 0.0------------
1994-08-12 14.2 17.6 11.4 9.7 89.3- 8.0 3.3---- 7.8------------
1994-08-11 17.8 20.8 14.4 11.8 86.5- 6.7 2.7---- 1.3------------
1994-08-10 17.7 26.2 9.6 8.7 78.0- 3.0 0.7---- 15.8------------
1994-08-09 17.6 20.2 16.0 13.9 84.0- 5.0 0.7---- 7.6------------
1994-08-08 18.4 22.4 13.4 11.8 85.8- 6.7 1.7---- 34.7------------
1994-08-07 19.9 26.8 13.4 10.7 75.8- 6.7 2.0---- 14.4------------
1994-08-06 21.4 28.8 13.4 9.3 64.0- 4.0 0.3---- 0.0------------
1994-08-05 20.8 29.8 8.2 6.8 64.8- 1.0 0.3---- 0.0------------
1994-08-04 19.6 26.8 9.6 6.8 62.8- 1.3 0.7---- 0.0------------
1994-08-03 20.3 25.8 13.9 10.9 73.8- 4.0 0.7---- 0.0------------
1994-08-02 22.2 29.8 14.0 10.0 64.0- 3.0 0.7---- 0.1------------
1994-08-01 25.1 32.8 14.4 10.9 51.0- 2.3 2.0---- 0.0------------
1994-07-31 23.2 31.8 12.9 9.7 56.5- 4.0 3.0---- 0.0------------
1994-07-30 22.4 32.3 12.9 9.7 59.5- 3.7 1.3---- 0.0------------
1994-07-29 22.2 32.3 12.9 9.7 59.5- 3.7 1.3---- 0.0------------
1994-07-28 20.3 30.8 11.9 9.2 63.3- 2.0 2.3---- 0.0------------
1994-07-27 20.7 30.3 12.4 9.7 68.5- 5.3 0.7---- 0.0------------
1994-07-26 20.5 30.3 10.9 8.7 67.8- 4.7 2.7---- 0.0------------
1994-07-25 19.2 29.3 10.9 7.8 68.3- 4.7 2.0---- 0.0------------
1994-07-24 19.4 28.3 8.5 5.8 56.3- 3.0 3.0---- 0.0------------
1994-07-23 18.7 26.8 7.4 4.9 54.5- 4.7 3.7---- 0.0------------
1994-07-22 18.8 26.8 7.4 4.9 55.0- 1.7 3.7---- 0.0------------
1994-07-21 16.5 24.8 6.0 3.4 60.8- 0.0 3.7---- 0.0------------
1994-07-20 17.1 22.3 12.4 10.2 57.3- 3.3 4.3---- 0.0------------
1994-07-19 15.9 20.0 14.4 13.8 77.5- 8.0 2.0---- 0.3------------
1994-07-18 17.2 22.8 10.9 8.7 83.8- 6.3 3.7---- 0.0------------
1994-07-17 17.0 25.3 12.0 10.7 87.8- 5.3 2.0---- 9.2------------
1994-07-16 19.6 25.2 13.9 11.8 73.5- 5.7 2.0---- 0.0------------
1994-07-15 19.5 26.8 11.4 9.2 68.5- 4.0 2.7---- 0.0------------
1994-07-14 19.2 27.3 10.0 8.3 63.5- 4.3 2.0---- 0.0------------
1994-07-13 18.4 25.8 10.0 7.8 65.5- 3.0 3.0---- 0.0------------
1994-07-12 17.5 24.3 11.4 8.7 77.3- 6.0 5.0---- 0.0------------
1994-07-11 17.8 23.8 9.2 6.8 67.8- 5.3 5.0---- 0.0------------
1994-07-10 15.4 19.8 11.9 10.7 78.0- 6.3 4.3---- 0.0------------
1994-07-09 13.0 16.8 10.4 8.7 84.8- 7.7 6.0---- 26.8------------
1994-07-08 11.7 16.3 9.0 8.7 85.0- 7.7 7.7---- 1.5------------
1994-07-07 12.9 18.8 7.5 7.8 87.3- 7.3 3.3---- 16.3------------
1994-07-06 15.8 22.0 7.0 7.3 79.5- 6.0 2.3---- 1.7------------
1994-07-05 18.3 27.0 11.1 9.7 82.3- 7.0 2.0---- 11.0------------
1994-07-04 20.3 30.3 7.0 6.3 56.3- 1.3 3.3---- 0.0------------
1994-07-03 18.5 28.8 3.8 4.9 56.5- 4.3 3.7---- 0.0------------
1994-07-02 14.8 22.8 2.8 2.9 64.5- 0.3 2.0---- 0.0------------
1994-07-01 13.7 19.8 2.8 3.9 63.8- 2.3 5.0---- 0.0------------
1994-06-30 15.6 24.0 12.0 9.7 90.0- 8.0 0.7---- 8.8------------
1994-06-29 22.0 31.0 12.0 9.7 67.0- 5.3 0.7---- 0.0------------
1994-06-28 20.7 28.0 11.4 7.8 76.8- 5.7 2.0---- 0.0------------
1994-06-27 20.8 29.0 12.4 7.8 79.3- 4.0 1.7---- 0.5------------
1994-06-26 23.9 30.0 14.4 9.7 57.0- 2.7 0.7---- 0.0------------
1994-06-25 16.9 29.0 1.8 -1.0 52.5- 0.7 0.7---- 0.0------------
1994-06-24 13.1 22.8 0.8 -2.6 54.3- 2.0 1.0---- 0.0------------
1994-06-23 16.6 22.6 13.2 9.5 61.3- 5.0 3.7---- 0.0------------
1994-06-22 18.2 24.8 9.6 4.9 70.3- 6.3 5.3---- 0.0------------
1994-06-21 14.2 22.4 3.0 1.0 64.5- 5.0 2.0---- 0.0------------
1994-06-20 14.4 20.0 7.6 2.9 72.5- 5.0 2.0---- 0.0------------
1994-06-19 18.5 26.8 12.2 9.2 69.8- 3.7 3.7---- 0.0------------
1994-06-18 11.0 18.0 -1.0 -2.0 70.8- 7.3 2.7---- 0.3------------
1994-06-17 7.6 13.4 5.4 4.9 74.3- 6.7 3.3---- 0.0------------
1994-06-16 9.0 12.6 4.6 -1.5 79.5- 8.0 3.3---- 7.5------------
224.9 ms

 

Źródłem pochodzenia danych jest Instytut Meteorologii i Gospodarki Wodnej – Państwowy Instytut Badawczy. Dane Instytutu Meteorologii i Gospodarki Wodnej – Państwowego Instytutu Badawczego zostały przetworzone.

Dane źródłowe można odnaleźć na stronie https://dane.imgw.pl